createdAt,value
2023-04-02T00:00:19.129Z,99493.53
2023-04-02T00:05:51.240Z,99489.31
2023-04-02T00:10:55.853Z,99512.81
2023-04-02T00:16:00.637Z,99509.56
2023-04-02T00:21:13.741Z,99536.75
2023-04-02T00:26:33.070Z,99545.69
2023-04-02T00:31:41.292Z,99538.81
2023-04-02T00:36:47.261Z,99560.22
2023-04-02T00:41:55.132Z,99565.47
2023-04-02T00:46:58.070Z,99569.84
2023-04-02T00:52:06.776Z,99581.31
2023-04-02T00:57:18.505Z,99577.28
2023-04-02T01:02:28.592Z,99588.66
2023-04-02T01:08:05.961Z,99605.13
2023-04-02T01:13:21.232Z,99595.97
2023-04-02T01:18:36.248Z,99616.56
2023-04-02T01:23:54.681Z,99637.59
2023-04-02T01:29:05.124Z,99651.53
2023-04-02T01:34:11.348Z,99669.78
2023-04-02T01:39:26.974Z,99679.47
2023-04-02T01:44:38.218Z,99685.66
2023-04-02T01:49:43.524Z,99699.50
2023-04-02T01:54:47.964Z,99707.22
2023-04-02T01:59:53.029Z,99714.13
2023-04-02T02:04:55.808Z,99727.03
2023-04-02T02:09:58.919Z,99727.16
2023-04-02T02:15:03.555Z,99742.03
2023-04-02T02:20:11.391Z,99760.25
2023-04-02T02:25:17.543Z,99768.75
2023-04-02T02:30:26.302Z,99778.28
2023-04-02T02:35:34.482Z,99785.22
2023-04-02T02:40:46.330Z,99788.59
2023-04-02T02:45:51.496Z,99791.13
2023-04-02T02:50:55.874Z,99800.66
2023-04-02T02:56:02.416Z,99817.06
2023-04-02T03:01:13.929Z,99824.88
2023-04-02T03:06:21.125Z,99831.00
2023-04-02T03:11:36.619Z,99844.75
2023-04-02T03:16:48.877Z,99858.47
2023-04-02T03:21:55.644Z,99869.63
2023-04-02T03:27:03.456Z,99886.00
2023-04-02T03:32:13.303Z,99892.16
2023-04-02T03:37:21.250Z,99904.22
2023-04-02T03:42:26.328Z,99921.44
2023-04-02T03:47:38.225Z,99933.50
2023-04-02T03:52:40.859Z,99941.22
2023-04-02T03:57:55.892Z,99951.53
2023-04-02T04:03:11.242Z,99967.00
2023-04-02T04:08:19.131Z,99980.75
2023-04-02T04:13:27.560Z,99990.22
2023-04-02T04:18:38.401Z,100007.41
2023-04-02T04:23:52.057Z,100021.16
2023-04-02T04:29:06.561Z,100030.63
2023-04-02T04:34:17.946Z,100040.06
2023-04-02T04:39:24.165Z,100040.09
2023-04-02T04:44:37.043Z,100053.78
2023-04-02T04:49:46.895Z,100068.38
2023-04-02T04:54:51.394Z,100090.66
2023-04-02T05:00:06.416Z,100088.94
2023-04-02T05:05:19.842Z,100107.88
2023-04-02T05:10:32.015Z,100125.03
2023-04-02T05:15:42.451Z,100134.47
2023-04-02T05:20:55.196Z,100149.00
2023-04-02T05:26:07.237Z,100153.28
2023-04-02T05:31:13.970Z,100152.44
2023-04-02T05:36:25.386Z,100179.06
2023-04-02T05:41:37.343Z,100185.13
2023-04-02T05:46:47.785Z,100198.75
2023-04-02T05:51:57.587Z,100211.38
2023-04-02T05:57:05.027Z,100208.00
2023-04-02T06:02:19.381Z,100228.34
2023-04-02T06:07:26.059Z,100238.81
2023-04-02T06:12:39.418Z,100247.25
2023-04-02T06:17:49.233Z,100260.97
2023-04-02T06:22:57.540Z,100266.16
2023-04-02T06:28:03.502Z,100277.28
2023-04-02T06:33:06.465Z,100285.06
2023-04-02T06:38:20.864Z,100295.41
2023-04-02T06:43:33.673Z,100310.16
2023-04-02T06:49:06.309Z,100315.09
2023-04-02T06:54:16.978Z,100333.03
2023-04-02T06:59:22.892Z,100345.19
2023-04-02T07:04:25.268Z,100352.13
2023-04-02T07:09:30.220Z,100362.31
2023-04-02T07:14:35.260Z,100377.59
2023-04-02T07:19:36.402Z,100383.94
2023-04-02T07:24:38.564Z,100377.84
2023-04-02T07:29:42.814Z,100395.03
2023-04-02T07:34:43.877Z,100398.59
2023-04-02T07:39:46.429Z,100412.31
2023-04-02T07:44:58.773Z,100422.03
2023-04-02T07:49:59.665Z,100416.84
2023-04-02T07:55:02.909Z,100432.50
2023-04-02T08:00:07.612Z,100452.75
2023-04-02T08:05:18.110Z,100459.44
2023-04-02T08:10:22.524Z,100467.16
2023-04-02T08:15:24.279Z,100477.72
2023-04-02T08:20:28.722Z,100479.56
2023-04-02T08:25:31.085Z,100491.50
2023-04-02T08:30:32.477Z,100499.22
2023-04-02T08:35:34.259Z,100506.00
2023-04-02T08:40:41.185Z,100515.47
2023-04-02T08:45:51.487Z,100534.31
2023-04-02T08:50:52.870Z,100548.13
2023-04-02T08:56:03.854Z,100546.75
2023-04-02T09:01:09.155Z,100554.28
2023-04-02T09:06:16.554Z,100567.06
2023-04-02T09:11:25.423Z,100565.25
2023-04-02T09:16:43.537Z,100570.63
2023-04-02T09:21:47.225Z,100577.56
2023-04-02T09:26:49.638Z,100576.50
2023-04-02T09:32:00.637Z,100595.28
2023-04-02T09:37:09.805Z,100608.69
2023-04-02T09:42:31.944Z,100630.09
2023-04-02T09:47:34.011Z,100635.13
2023-04-02T09:52:36.468Z,100636.94
2023-04-02T09:57:39.014Z,100649.63
2023-04-02T10:02:41.481Z,100660.13
2023-04-02T10:07:46.094Z,100654.91
2023-04-02T10:12:51.889Z,100662.59
2023-04-02T10:18:01.521Z,100677.13
2023-04-02T10:23:04.899Z,100691.00
2023-04-02T10:28:25.103Z,100694.44
2023-04-02T10:33:31.539Z,100697.34
2023-04-02T10:38:43.904Z,100707.56
2023-04-02T10:44:18.908Z,100712.78
2023-04-02T10:49:32.445Z,100722.84
2023-04-02T10:54:42.551Z,100723.78
2023-04-02T10:59:50.324Z,100735.75
2023-04-02T11:04:52.251Z,100742.41
2023-04-02T11:09:58.003Z,100740.53
2023-04-02T11:15:00.843Z,100749.25
2023-04-02T11:20:43.356Z,100754.88
2023-04-02T11:25:45.015Z,100764.94
2023-04-02T11:30:49.815Z,100767.75
2023-04-02T11:35:51.305Z,100770.44
2023-04-02T11:40:54.806Z,100782.59
2023-04-02T11:46:00.224Z,100788.41
2023-04-02T11:51:04.924Z,100795.38
2023-04-02T11:56:21.986Z,100793.56
2023-04-02T12:01:53.575Z,100806.03
2023-04-02T12:07:26.826Z,100797.84
2023-04-02T12:12:32.806Z,100802.09
2023-04-02T12:17:37.276Z,100807.75
2023-04-02T12:22:41.829Z,100815.66
2023-04-02T12:27:46.379Z,100816.84
2023-04-02T12:32:50.963Z,100822.47
2023-04-02T12:37:53.894Z,100830.06
2023-04-02T12:42:55.320Z,100831.25
2023-04-02T12:47:58.901Z,100831.22
2023-04-02T12:53:01.801Z,100834.59
2023-04-02T12:58:05.120Z,100841.25
2023-04-02T13:03:22.564Z,100844.16
2023-04-02T13:08:27.320Z,100846.88
2023-04-02T13:13:31.347Z,100841.50
2023-04-02T13:18:36.140Z,100870.50
2023-04-02T13:23:38.527Z,100872.06
2023-04-02T13:28:39.556Z,100870.22
2023-04-02T13:33:42.490Z,100882.06
2023-04-02T13:38:46.553Z,100888.94
2023-04-02T13:43:50.860Z,100901.31
2023-04-02T13:48:56.834Z,100902.19
2023-04-02T13:54:00.100Z,100909.06
2023-04-02T13:59:02.908Z,100920.91
2023-04-02T14:04:06.368Z,100927.81
2023-04-02T14:09:18.788Z,100928.38
2023-04-02T14:14:33.168Z,100940.59
2023-04-02T14:19:49.739Z,100941.41
2023-04-02T14:25:02.168Z,100951.03
2023-04-02T14:30:08.774Z,100956.66
2023-04-02T14:35:25.997Z,100948.75
2023-04-02T14:40:34.072Z,100959.81
2023-04-02T14:45:48.064Z,100963.31
2023-04-02T14:50:55.592Z,100971.63
2023-04-02T14:56:01.142Z,100966.75
2023-04-02T15:01:07.642Z,100981.56
2023-04-02T15:06:20.015Z,100976.56
2023-04-02T15:11:26.172Z,100973.28
2023-04-02T15:16:28.836Z,100971.50
2023-04-02T15:21:57.478Z,100976.69
2023-04-02T15:27:24.007Z,100980.00
2023-04-02T15:32:38.059Z,100993.03
2023-04-02T15:37:51.746Z,100992.28
2023-04-02T15:43:00.760Z,101004.47
2023-04-02T15:48:29.159Z,101011.38
2023-04-02T15:53:45.998Z,101012.41
2023-04-02T15:59:24.958Z,101014.78
2023-04-02T16:04:40.593Z,101018.22
2023-04-02T16:09:54.403Z,101025.88
2023-04-02T16:15:06.743Z,101039.78
2023-04-02T16:20:19.543Z,101036.38
2023-04-02T16:25:28.291Z,101046.78
2023-04-02T16:30:42.254Z,101049.16
2023-04-02T16:35:55.321Z,101052.75
2023-04-02T16:41:10.121Z,101065.66
2023-04-02T16:46:38.181Z,101072.63
2023-04-02T16:51:46.598Z,101067.97
2023-04-02T16:57:04.288Z,101083.44
2023-04-02T17:02:20.823Z,101079.16
2023-04-02T17:07:34.894Z,101086.03
2023-04-02T17:12:45.929Z,101097.19
2023-04-02T17:17:46.995Z,101098.13
2023-04-02T17:22:48.529Z,101112.72
2023-04-02T17:27:55.669Z,101110.84
2023-04-02T17:32:56.585Z,101107.53
2023-04-02T17:38:08.274Z,101116.00
2023-04-02T17:43:26.421Z,101125.50
2023-04-02T17:48:33.716Z,101115.19
2023-04-02T17:53:45.572Z,101121.94
2023-04-02T17:59:16.749Z,101121.91
2023-04-02T18:04:34.678Z,101136.44
2023-04-02T18:09:46.727Z,101152.06
2023-04-02T18:15:03.727Z,101145.13
2023-04-02T18:20:17.792Z,101154.53
2023-04-02T18:25:33.422Z,101166.41
2023-04-02T18:30:40.606Z,101165.63
2023-04-02T18:35:53.756Z,101175.13
2023-04-02T18:41:06.778Z,101181.25
2023-04-02T18:46:22.249Z,101186.41
2023-04-02T18:51:25.332Z,101196.59
2023-04-02T18:56:27.580Z,101199.19
2023-04-02T19:01:35.534Z,101215.47
2023-04-02T19:06:40.351Z,101219.84
2023-04-02T19:11:42.932Z,101225.75
2023-04-02T19:17:04.212Z,101224.06
2023-04-02T19:22:31.524Z,101235.97
2023-04-02T19:27:40.702Z,101233.59
2023-04-02T19:32:48.304Z,101238.69
2023-04-02T19:37:59.508Z,101242.91
2023-04-02T19:43:00.615Z,101247.09
2023-04-02T19:48:10.822Z,101245.38
2023-04-02T19:53:11.696Z,101250.53
2023-04-02T19:58:23.083Z,101249.47
2023-04-02T20:03:25.475Z,101253.84
2023-04-02T20:08:26.345Z,101258.22
2023-04-02T20:13:27.154Z,101262.47
2023-04-02T20:18:29.602Z,101264.31
2023-04-02T20:23:30.358Z,101267.88
2023-04-02T20:28:31.844Z,101271.13
2023-04-02T20:33:33.998Z,101274.66
2023-04-02T20:38:35.899Z,101278.00
2023-04-02T20:43:40.448Z,101281.50
2023-04-02T20:48:42.626Z,101300.28
2023-04-02T20:53:43.836Z,101301.31
2023-04-02T20:58:47.804Z,101308.00
2023-04-02T21:03:50.686Z,101308.81
2023-04-02T21:08:51.773Z,101309.50
2023-04-02T21:13:52.851Z,101306.91
2023-04-02T21:18:55.533Z,101300.06
2023-04-02T21:23:58.016Z,101306.03
2023-04-02T21:28:58.890Z,101320.81
2023-04-02T21:34:01.257Z,101323.25
2023-04-02T21:39:03.485Z,101317.28
2023-04-02T21:44:06.421Z,101318.88
2023-04-02T21:49:09.086Z,101322.28
2023-04-02T21:54:10.523Z,101329.97
2023-04-02T21:59:13.444Z,101331.56
2023-04-02T22:04:18.821Z,101337.34
2023-04-02T22:09:21.536Z,101338.84
2023-04-02T22:14:22.976Z,101347.63
2023-04-02T22:19:25.346Z,101350.88
2023-04-02T22:24:27.237Z,101359.22
2023-04-02T22:29:29.091Z,101355.66
2023-04-02T22:34:31.339Z,101356.41
2023-04-02T22:39:32.007Z,101360.84
2023-04-02T22:44:32.706Z,101370.94
2023-04-02T22:49:34.698Z,101374.19
2023-04-02T22:54:35.654Z,101380.03
2023-04-02T22:59:36.297Z,101385.94
2023-04-02T23:04:38.394Z,101388.28
2023-04-02T23:09:39.104Z,101393.28
2023-04-02T23:14:39.814Z,101396.59
2023-04-02T23:19:41.883Z,101398.97
2023-04-02T23:24:42.587Z,101398.66
2023-04-02T23:29:43.252Z,101403.69
2023-04-02T23:34:45.278Z,101405.28
2023-04-02T23:39:46.046Z,101404.97
2023-04-02T23:44:46.715Z,101404.84
2023-04-02T23:49:48.775Z,101399.44
2023-04-02T23:54:49.446Z,101396.09
2023-04-02T23:59:50.235Z,101406.91
